createdAt,value
2022-10-12T00:00:32.214Z,4.20
2022-10-12T00:03:21.831Z,4.38
2022-10-12T00:06:12.344Z,4.05
2022-10-12T00:09:01.964Z,4.00
2022-10-12T00:11:50.248Z,3.45
2022-10-12T00:14:38.922Z,3.80
2022-10-12T00:17:27.182Z,4.00
2022-10-12T00:20:15.469Z,3.75
2022-10-12T00:23:03.770Z,3.55
2022-10-12T00:25:53.395Z,3.72
2022-10-12T00:28:42.011Z,3.30
2022-10-12T00:31:31.320Z,3.70
2022-10-12T00:34:19.778Z,4.55
2022-10-12T00:37:08.340Z,3.55
2022-10-12T00:39:57.039Z,3.50
2022-10-12T00:42:46.665Z,3.85
2022-10-12T00:45:34.971Z,3.85
2022-10-12T00:48:24.624Z,3.85
2022-10-12T00:51:13.617Z,3.50
2022-10-12T00:54:05.072Z,4.07
2022-10-12T00:56:55.333Z,4.00
2022-10-12T00:59:50.254Z,3.77
2022-10-12T01:02:41.140Z,3.75
2022-10-12T01:05:29.729Z,3.67
2022-10-12T01:08:18.012Z,4.57
2022-10-12T01:11:06.626Z,4.70
2022-10-12T01:13:54.936Z,4.07
2022-10-12T01:16:51.734Z,3.63
2022-10-12T01:20:07.726Z,4.82
2022-10-12T01:23:12.077Z,3.78
2022-10-12T01:26:15.554Z,4.07
2022-10-12T01:29:14.585Z,4.45
2022-10-12T01:32:10.614Z,3.85
2022-10-12T01:35:04.163Z,4.10
2022-10-12T01:38:00.552Z,3.97
2022-10-12T01:40:55.715Z,3.83
2022-10-12T01:43:46.406Z,3.85
2022-10-12T01:46:45.759Z,4.05
2022-10-12T01:49:36.760Z,3.92
2022-10-12T01:52:29.021Z,4.10
2022-10-12T01:55:28.999Z,4.30
2022-10-12T01:58:33.075Z,4.30
2022-10-12T02:01:30.761Z,4.38
2022-10-12T02:04:26.075Z,4.03
2022-10-12T02:07:22.026Z,4.30
2022-10-12T02:10:16.450Z,3.65
2022-10-12T02:13:09.402Z,4.00
2022-10-12T02:16:01.807Z,3.67
2022-10-12T02:18:53.036Z,4.10
2022-10-12T02:24:33.192Z,3.35
2022-10-12T02:27:23.197Z,3.50
2022-10-12T02:30:12.636Z,4.07
2022-10-12T02:33:08.031Z,3.88
2022-10-12T02:36:01.443Z,3.78
2022-10-12T02:38:54.674Z,4.43
2022-10-12T02:41:48.502Z,4.22
2022-10-12T02:44:39.872Z,4.05
2022-10-12T02:47:31.119Z,4.03
2022-10-12T02:53:09.712Z,4.03
2022-10-12T02:56:02.921Z,4.25
2022-10-12T02:58:52.581Z,4.20
2022-10-12T03:01:41.122Z,4.07
2022-10-12T03:04:29.492Z,3.60
2022-10-12T03:07:17.884Z,4.22
2022-10-12T03:10:06.854Z,4.57
2022-10-12T03:12:55.459Z,3.55
2022-10-12T03:15:45.122Z,4.65
2022-10-12T03:18:34.434Z,4.07
2022-10-12T03:21:22.722Z,3.70
2022-10-12T03:24:11.286Z,3.70
2022-10-12T03:26:59.641Z,3.20
2022-10-12T03:29:47.931Z,3.25
2022-10-12T03:32:37.529Z,3.58
2022-10-12T03:35:25.825Z,4.78
2022-10-12T03:38:14.147Z,3.55
2022-10-12T03:41:06.552Z,3.97
2022-10-12T03:43:55.245Z,4.53
2022-10-12T03:46:43.486Z,3.67
2022-10-12T03:49:33.093Z,3.53
2022-10-12T03:52:21.355Z,4.45
2022-10-12T03:55:10.586Z,3.90
2022-10-12T03:57:59.125Z,4.00
2022-10-12T04:00:47.366Z,4.40
2022-10-12T04:03:36.581Z,3.72
2022-10-12T04:06:26.315Z,3.50
2022-10-12T04:09:14.614Z,3.75
2022-10-12T04:12:03.086Z,4.00
2022-10-12T04:14:51.374Z,4.03
2022-10-12T04:17:40.180Z,3.70
2022-10-12T04:20:28.805Z,4.63
2022-10-12T04:23:18.507Z,4.72
2022-10-12T04:26:07.038Z,3.67
2022-10-12T04:28:55.377Z,4.50
2022-10-12T04:31:43.925Z,3.78
2022-10-12T04:34:32.235Z,3.67
2022-10-12T04:37:20.535Z,3.90
2022-10-12T04:40:11.262Z,4.45
2022-10-12T04:42:59.480Z,4.03
2022-10-12T04:45:55.926Z,3.92
2022-10-12T04:48:44.237Z,3.47
2022-10-12T04:51:32.538Z,3.83
2022-10-12T04:54:20.814Z,3.78
2022-10-12T04:57:10.647Z,3.40
2022-10-12T04:59:58.919Z,4.15
2022-10-12T05:02:47.463Z,4.30
2022-10-12T05:05:36.249Z,4.50
2022-10-12T05:08:24.805Z,4.70
2022-10-12T05:11:13.042Z,5.90
2022-10-12T05:14:02.703Z,6.15
2022-10-12T05:16:51.021Z,6.80
2022-10-12T05:19:39.654Z,7.50
2022-10-12T05:22:28.012Z,7.40
2022-10-12T05:25:16.543Z,6.72
2022-10-12T05:28:05.092Z,6.78
2022-10-12T05:30:54.987Z,6.00
2022-10-12T05:33:43.330Z,4.85
2022-10-12T05:36:31.630Z,6.18
2022-10-12T05:39:19.928Z,5.38
2022-10-12T05:42:08.293Z,5.43
2022-10-12T05:44:56.697Z,6.60
2022-10-12T05:47:46.339Z,5.93
2022-10-12T05:50:34.665Z,5.47
2022-10-12T05:53:23.431Z,5.70
2022-10-12T05:56:11.891Z,5.18
2022-10-12T05:59:00.123Z,7.03
2022-10-12T06:01:49.872Z,5.60
2022-10-12T06:04:39.785Z,5.95
2022-10-12T06:07:28.246Z,5.55
2022-10-12T06:10:16.697Z,6.22
2022-10-12T06:13:05.559Z,6.15
2022-10-12T06:15:54.159Z,6.43
2022-10-12T06:18:42.452Z,6.55
2022-10-12T06:21:34.339Z,5.65
2022-10-12T06:24:23.142Z,6.35
2022-10-12T06:27:11.440Z,6.45
2022-10-12T06:29:59.756Z,6.63
2022-10-12T06:32:48.072Z,6.97
2022-10-12T06:35:36.455Z,6.13
2022-10-12T06:38:26.149Z,6.82
2022-10-12T06:41:14.495Z,8.27
2022-10-12T06:44:02.825Z,7.15
2022-10-12T06:46:51.463Z,6.65
2022-10-12T06:49:39.814Z,8.48
2022-10-12T06:52:28.196Z,9.23
2022-10-12T06:55:18.185Z,10.73
2022-10-12T06:58:06.495Z,11.88
2022-10-12T07:00:55.322Z,10.57
2022-10-12T07:03:43.585Z,10.60
2022-10-12T07:06:32.137Z,10.75
2022-10-12T07:09:21.685Z,11.52
2022-10-12T07:12:12.609Z,10.20
2022-10-12T07:15:01.145Z,9.82
2022-10-12T07:17:49.708Z,9.10
2022-10-12T07:20:40.394Z,9.13
2022-10-12T07:23:28.952Z,9.38
2022-10-12T07:26:17.437Z,10.57
2022-10-12T07:29:07.526Z,9.60
2022-10-12T07:31:55.818Z,10.10
2022-10-12T07:34:44.744Z,10.35
2022-10-12T07:37:33.071Z,9.23
2022-10-12T07:40:21.401Z,10.40
2022-10-12T07:43:16.224Z,9.95
2022-10-12T07:46:06.482Z,9.10
2022-10-12T07:48:54.840Z,8.80
2022-10-12T07:51:43.636Z,8.52
2022-10-12T07:54:32.929Z,10.25
2022-10-12T07:57:21.459Z,8.50
2022-10-12T08:00:10.840Z,8.10
2022-10-12T08:03:00.476Z,8.57
2022-10-12T08:05:48.784Z,8.77
2022-10-12T08:08:37.084Z,9.02
2022-10-12T08:11:25.399Z,9.07
2022-10-12T08:14:15.371Z,8.43
2022-10-12T08:17:03.689Z,9.23
2022-10-12T08:19:53.324Z,12.13
2022-10-12T08:22:41.623Z,10.02
2022-10-12T08:25:30.055Z,9.70
2022-10-12T08:28:18.499Z,10.18
2022-10-12T08:31:11.535Z,8.48
2022-10-12T08:34:00.192Z,7.97
2022-10-12T08:36:51.834Z,6.93
2022-10-12T08:39:40.134Z,7.70
2022-10-12T08:42:41.785Z,7.50
2022-10-12T08:45:39.272Z,6.55
2022-10-12T08:48:31.714Z,6.20
2022-10-12T08:51:24.216Z,5.97
2022-10-12T08:54:16.825Z,6.45
2022-10-12T08:57:05.235Z,7.05
2022-10-12T08:59:53.725Z,7.78
2022-10-12T09:02:54.698Z,7.05
2022-10-12T09:05:50.314Z,6.63
2022-10-12T09:08:54.822Z,6.03
2022-10-12T09:11:59.481Z,5.68
2022-10-12T09:14:52.134Z,6.13
2022-10-12T09:17:43.055Z,5.32
2022-10-12T09:20:35.370Z,5.50
2022-10-12T09:23:25.813Z,4.80
2022-10-12T09:26:16.984Z,4.43
2022-10-12T09:29:21.689Z,4.57
2022-10-12T09:32:31.477Z,4.22
2022-10-12T09:35:19.992Z,4.18
2022-10-12T09:38:11.024Z,4.03
2022-10-12T09:43:48.288Z,4.43
2022-10-12T09:46:43.760Z,3.60
2022-10-12T09:49:43.111Z,4.07
2022-10-12T09:52:44.394Z,2.70
2022-10-12T09:55:32.685Z,3.47
2022-10-12T09:58:22.694Z,3.35
2022-10-12T10:01:19.259Z,4.68
2022-10-12T10:04:13.095Z,4.07
2022-10-12T10:07:20.169Z,3.03
2022-10-12T10:10:17.579Z,3.95
2022-10-12T10:13:06.661Z,2.90
2022-10-12T10:16:05.255Z,2.53
2022-10-12T10:18:58.052Z,4.20
2022-10-12T10:21:48.106Z,3.28
2022-10-12T10:24:36.467Z,2.43
2022-10-12T10:27:34.250Z,2.60
2022-10-12T10:30:32.649Z,2.80
2022-10-12T10:33:24.840Z,2.70
2022-10-12T10:36:21.281Z,3.22
2022-10-12T10:39:20.567Z,2.45
2022-10-12T10:42:13.293Z,2.80
2022-10-12T10:45:03.493Z,2.47
2022-10-12T10:47:56.398Z,2.40
2022-10-12T10:50:51.377Z,2.10
2022-10-12T10:53:46.814Z,2.90
2022-10-12T10:56:36.574Z,2.20
2022-10-12T10:59:35.247Z,3.92
2022-10-12T11:02:30.930Z,2.10
2022-10-12T11:05:24.187Z,2.08
2022-10-12T11:08:17.541Z,2.13
2022-10-12T11:11:12.272Z,2.53
2022-10-12T11:14:06.215Z,2.15
2022-10-12T11:16:59.497Z,1.98
2022-10-12T11:19:53.698Z,1.80
2022-10-12T11:22:48.977Z,1.85
2022-10-12T11:25:48.994Z,1.77
2022-10-12T11:28:39.211Z,1.77
2022-10-12T11:31:36.125Z,1.70
2022-10-12T11:34:26.652Z,1.85
2022-10-12T11:37:39.530Z,1.73
2022-10-12T11:41:05.501Z,1.67
2022-10-12T11:43:47.577Z,1.30
2022-10-12T11:46:43.642Z,1.85
2022-10-12T11:49:36.665Z,1.42
2022-10-12T11:52:29.093Z,2.13
2022-10-12T11:55:53.163Z,1.38
2022-10-12T11:59:01.395Z,1.40
2022-10-12T12:02:11.995Z,1.85
2022-10-12T12:05:01.490Z,1.45
2022-10-12T12:07:51.182Z,1.42
2022-10-12T12:11:07.537Z,1.40
2022-10-12T12:14:29.030Z,2.00
2022-10-12T12:17:31.593Z,1.33
2022-10-12T12:20:57.858Z,1.88
2022-10-12T12:23:53.804Z,1.48
2022-10-12T12:26:48.553Z,2.22
2022-10-12T12:29:36.934Z,1.52
2022-10-12T12:32:27.999Z,1.42
2022-10-12T12:35:22.945Z,1.60
2022-10-12T12:38:21.027Z,1.30
2022-10-12T12:41:12.910Z,1.70
2022-10-12T12:44:03.976Z,1.40
2022-10-12T12:47:44.063Z,1.77
2022-10-12T12:50:35.563Z,1.65
2022-10-12T12:53:24.611Z,1.67
2022-10-12T12:56:24.609Z,1.48
2022-10-12T12:59:41.979Z,1.57
2022-10-12T13:03:03.894Z,1.92
2022-10-12T13:06:25.667Z,1.55
2022-10-12T13:09:41.678Z,1.20
2022-10-12T13:12:57.587Z,1.60
2022-10-12T13:16:03.960Z,1.90
2022-10-12T13:18:59.194Z,1.75
2022-10-12T13:21:50.181Z,1.63
2022-10-12T13:24:46.417Z,1.70
2022-10-12T13:27:42.041Z,1.38
2022-10-12T13:30:35.551Z,1.60
2022-10-12T13:33:32.461Z,1.50
2022-10-12T13:36:24.519Z,1.70
2022-10-12T13:39:17.499Z,3.55
2022-10-12T13:42:07.795Z,2.15
2022-10-12T13:44:56.181Z,2.10
2022-10-12T13:47:44.632Z,1.95
2022-10-12T13:50:33.004Z,1.98
2022-10-12T13:53:21.410Z,1.85
2022-10-12T13:56:14.786Z,1.77
2022-10-12T13:59:08.754Z,2.03
2022-10-12T14:02:01.651Z,2.38
2022-10-12T14:04:50.005Z,1.83
2022-10-12T14:07:40.668Z,1.88
2022-10-12T14:10:32.471Z,2.17
2022-10-12T14:13:27.206Z,2.33
2022-10-12T14:16:17.122Z,2.10
2022-10-12T14:19:32.252Z,1.77
2022-10-12T14:22:24.017Z,2.13
2022-10-12T14:25:18.451Z,2.72
2022-10-12T14:28:08.136Z,2.28
2022-10-12T14:30:56.493Z,1.98
2022-10-12T14:33:46.249Z,1.90
2022-10-12T14:36:34.668Z,2.28
2022-10-12T14:39:23.090Z,1.98
2022-10-12T14:42:21.090Z,1.75
2022-10-12T14:45:24.657Z,2.00
2022-10-12T14:48:17.462Z,1.90
2022-10-12T14:51:07.350Z,2.20
2022-10-12T14:54:02.333Z,1.90
2022-10-12T14:56:50.704Z,1.80
2022-10-12T14:59:39.010Z,2.20
2022-10-12T15:02:29.342Z,2.33
2022-10-12T15:05:21.361Z,1.80
2022-10-12T15:08:11.057Z,2.00
2022-10-12T15:10:59.382Z,2.28
2022-10-12T15:13:47.714Z,2.55
2022-10-12T15:16:36.054Z,2.58
2022-10-12T15:19:24.393Z,1.92
2022-10-12T15:22:17.030Z,1.95
2022-10-12T15:25:17.974Z,2.22
2022-10-12T15:31:17.814Z,2.50
2022-10-12T15:34:13.077Z,2.45
2022-10-12T15:37:05.265Z,2.65
2022-10-12T15:39:56.346Z,3.85
2022-10-12T15:42:46.569Z,5.90
2022-10-12T15:45:37.461Z,19.00
2022-10-12T15:51:19.162Z,4.57
2022-10-12T15:54:08.148Z,3.65
2022-10-12T15:56:56.458Z,2.70
2022-10-12T15:59:47.390Z,3.13
2022-10-12T16:05:26.290Z,9.13
2022-10-12T16:08:15.447Z,10.13
2022-10-12T16:11:04.674Z,7.70
2022-10-12T16:13:56.682Z,6.20
2022-10-12T16:16:46.630Z,6.13
2022-10-12T16:19:34.930Z,4.93
2022-10-12T16:22:23.207Z,4.65
2022-10-12T16:25:13.554Z,4.50
2022-10-12T16:28:01.857Z,4.20
2022-10-12T16:30:50.391Z,6.00
2022-10-12T16:33:41.473Z,12.55
2022-10-12T16:36:29.777Z,12.50
2022-10-12T16:39:18.081Z,10.60
2022-10-12T16:42:06.674Z,7.00
2022-10-12T16:44:54.933Z,6.35
2022-10-12T16:47:43.258Z,5.70
2022-10-12T16:50:32.974Z,4.45
2022-10-12T16:53:21.238Z,3.38
2022-10-12T16:56:09.647Z,3.72
2022-10-12T16:58:59.082Z,3.22
2022-10-12T17:01:47.437Z,3.05
2022-10-12T17:04:35.899Z,3.47
2022-10-12T17:07:25.627Z,3.20
2022-10-12T17:10:14.029Z,2.92
2022-10-12T17:13:02.345Z,3.03
2022-10-12T17:15:50.637Z,3.15
2022-10-12T17:18:38.933Z,2.88
2022-10-12T17:21:27.509Z,3.03
2022-10-12T17:24:20.475Z,4.00
2022-10-12T17:27:11.403Z,3.60
2022-10-12T17:29:59.845Z,4.72
2022-10-12T17:32:48.072Z,6.55
2022-10-12T17:35:40.865Z,4.72
2022-10-12T17:38:29.129Z,4.75
2022-10-12T17:41:18.852Z,4.20
2022-10-12T17:44:07.190Z,4.20
2022-10-12T17:46:55.506Z,5.32
2022-10-12T17:49:43.751Z,5.43
2022-10-12T17:52:32.046Z,5.63
2022-10-12T17:55:43.448Z,5.97
2022-10-12T17:58:29.961Z,5.25
2022-10-12T18:01:18.230Z,5.25
2022-10-12T18:04:06.987Z,4.20
2022-10-12T18:06:55.343Z,4.68
2022-10-12T18:09:43.734Z,4.55
2022-10-12T18:12:32.216Z,4.68
2022-10-12T18:15:23.162Z,5.80
2022-10-12T18:18:15.167Z,4.68
2022-10-12T18:21:06.344Z,5.07
2022-10-12T18:23:55.399Z,5.35
2022-10-12T18:26:45.278Z,5.70
2022-10-12T18:29:34.275Z,5.20
2022-10-12T18:32:23.954Z,6.00
2022-10-12T18:35:12.261Z,5.68
2022-10-12T18:38:00.640Z,5.43
2022-10-12T18:40:48.983Z,5.25
2022-10-12T18:43:37.912Z,6.82
2022-10-12T18:46:27.648Z,5.63
2022-10-12T18:49:17.555Z,6.07
2022-10-12T18:52:06.007Z,6.68
2022-10-12T18:54:54.506Z,6.68
2022-10-12T18:57:43.235Z,7.20
2022-10-12T19:00:31.722Z,6.80
2022-10-12T19:03:20.126Z,7.18
2022-10-12T19:06:11.789Z,6.88
2022-10-12T19:09:01.371Z,6.15
2022-10-12T19:11:49.661Z,5.88
2022-10-12T19:14:37.954Z,6.10
2022-10-12T19:17:26.259Z,6.45
2022-10-12T19:20:14.561Z,6.32
2022-10-12T19:23:04.351Z,6.20
2022-10-12T19:25:52.720Z,6.00
2022-10-12T19:28:41.065Z,6.05
2022-10-12T19:31:31.513Z,6.32
2022-10-12T19:34:21.313Z,6.57
2022-10-12T19:37:09.736Z,5.68
2022-10-12T19:40:01.829Z,5.38
2022-10-12T19:42:52.295Z,5.60
2022-10-12T19:45:41.045Z,5.85
2022-10-12T19:48:29.326Z,5.28
2022-10-12T19:51:18.990Z,5.55
2022-10-12T19:54:07.429Z,5.63
2022-10-12T19:56:57.148Z,7.50
2022-10-12T19:59:45.454Z,6.15
2022-10-12T20:02:34.892Z,5.88
2022-10-12T20:05:23.229Z,6.32
2022-10-12T20:08:11.535Z,6.28
2022-10-12T20:10:59.814Z,7.55
2022-10-12T20:13:50.289Z,8.05
2022-10-12T20:16:39.119Z,8.23
2022-10-12T20:19:27.443Z,8.02
2022-10-12T20:22:16.004Z,6.20
2022-10-12T20:25:09.310Z,6.78
2022-10-12T20:28:02.655Z,6.38
2022-10-12T20:30:52.358Z,6.13
2022-10-12T20:33:41.419Z,5.82
2022-10-12T20:36:31.274Z,6.57
2022-10-12T20:39:19.596Z,6.13
2022-10-12T20:42:07.955Z,5.88
2022-10-12T20:44:56.273Z,5.88
2022-10-12T20:47:46.198Z,6.65
2022-10-12T20:50:34.918Z,5.77
2022-10-12T20:53:23.304Z,6.55
2022-10-12T20:56:11.897Z,6.07
2022-10-12T20:59:01.938Z,5.90
2022-10-12T21:01:50.304Z,5.80
2022-10-12T21:04:39.968Z,6.93
2022-10-12T21:07:28.293Z,6.75
2022-10-12T21:10:16.791Z,6.43
2022-10-12T21:13:05.102Z,6.53
2022-10-12T21:15:53.708Z,6.20
2022-10-12T21:18:42.799Z,7.00
2022-10-12T21:21:32.411Z,6.28
2022-10-12T21:24:20.850Z,6.57
2022-10-12T21:27:09.187Z,6.97
2022-10-12T21:29:57.478Z,7.00
2022-10-12T21:32:45.778Z,9.68
2022-10-12T21:35:34.406Z,9.15
2022-10-12T21:38:24.037Z,8.68
2022-10-12T21:41:13.774Z,8.55
2022-10-12T21:44:02.051Z,8.70
2022-10-12T21:46:50.369Z,8.20
2022-10-12T21:49:38.635Z,8.18
2022-10-12T21:52:26.919Z,7.38
2022-10-12T21:55:16.598Z,8.00
2022-10-12T21:58:04.922Z,7.40
2022-10-12T22:00:53.274Z,7.18
2022-10-12T22:03:42.256Z,6.47
2022-10-12T22:06:31.312Z,6.18
2022-10-12T22:09:19.676Z,7.65
2022-10-12T22:12:09.611Z,6.78
2022-10-12T22:14:57.945Z,7.15
2022-10-12T22:17:46.227Z,7.00
2022-10-12T22:20:36.652Z,6.90
2022-10-12T22:23:24.945Z,7.45
2022-10-12T22:26:16.597Z,6.93
2022-10-12T22:29:08.626Z,6.60
2022-10-12T22:31:57.027Z,7.47
2022-10-12T22:34:45.350Z,6.78
2022-10-12T22:37:33.585Z,7.43
2022-10-12T22:40:21.891Z,9.40
2022-10-12T22:43:10.189Z,7.90
2022-10-12T22:46:00.113Z,7.78
2022-10-12T22:48:49.178Z,7.53
2022-10-12T22:51:39.365Z,7.78
2022-10-12T22:54:27.705Z,7.63
2022-10-12T22:57:15.997Z,8.15
2022-10-12T23:00:05.282Z,7.75
2022-10-12T23:02:54.948Z,8.43
2022-10-12T23:05:49.107Z,7.78
2022-10-12T23:08:37.577Z,7.15
2022-10-12T23:11:27.976Z,8.35
2022-10-12T23:14:16.288Z,7.90
2022-10-12T23:17:04.528Z,7.88
2022-10-12T23:19:54.203Z,7.78
2022-10-12T23:22:42.518Z,8.57
2022-10-12T23:25:30.809Z,8.45
2022-10-12T23:28:19.266Z,8.05
2022-10-12T23:31:09.543Z,7.57
2022-10-12T23:33:58.363Z,7.40
2022-10-12T23:36:48.027Z,7.25
2022-10-12T23:39:36.376Z,7.75
2022-10-12T23:42:24.683Z,8.23
2022-10-12T23:45:12.994Z,8.02
2022-10-12T23:48:01.269Z,8.27
2022-10-12T23:50:51.757Z,7.55
2022-10-12T23:53:43.011Z,7.22
2022-10-12T23:56:31.345Z,7.53
2022-10-12T23:59:19.998Z,8.32
